sensor_id;sensor_type;location;lat;lon;timestamp;P1;durP1;ratioP1;P2;durP2;ratioP2
69981;SDS011;57319;56.274;43.980;2023-10-09T00:01:05;0.57;;;0.57;;
69981;SDS011;57319;56.274;43.980;2023-10-09T00:03:42;4.40;;;0.80;;
69981;SDS011;57319;56.274;43.980;2023-10-09T00:06:09;0.70;;;0.70;;
69981;SDS011;57319;56.274;43.980;2023-10-09T00:08:42;0.90;;;0.90;;
69981;SDS011;57319;56.274;43.980;2023-10-09T00:11:15;1.08;;;1.08;;
69981;SDS011;57319;56.274;43.980;2023-10-09T00:13:41;0.90;;;0.90;;
69981;SDS011;57319;56.274;43.980;2023-10-09T00:16:15;1.63;;;1.20;;
69981;SDS011;57319;56.274;43.980;2023-10-09T00:18:50;0.80;;;0.80;;
69981;SDS011;57319;56.274;43.980;2023-10-09T00:21:16;1.40;;;1.30;;
69981;SDS011;57319;56.274;43.980;2023-10-09T00:23:45;1.17;;;1.17;;
69981;SDS011;57319;56.274;43.980;2023-10-09T00:26:25;1.20;;;1.10;;
69981;SDS011;57319;56.274;43.980;2023-10-09T00:28:51;1.88;;;1.77;;
69981;SDS011;57319;56.274;43.980;2023-10-09T00:31:18;1.35;;;1.35;;
69981;SDS011;57319;56.274;43.980;2023-10-09T00:33:58;1.40;;;1.30;;
69981;SDS011;57319;56.274;43.980;2023-10-09T00:36:44;1.65;;;1.55;;
69981;SDS011;57319;56.274;43.980;2023-10-09T00:39:19;1.85;;;1.75;;
69981;SDS011;57319;56.274;43.980;2023-10-09T00:42:06;4.40;;;2.10;;
69981;SDS011;57319;56.274;43.980;2023-10-09T00:44:33;2.30;;;2.10;;
69981;SDS011;57319;56.274;43.980;2023-10-09T00:47:06;2.67;;;1.42;;
69981;SDS011;57319;56.274;43.980;2023-10-09T00:52:29;1.90;;;1.77;;
69981;SDS011;57319;56.274;43.980;2023-10-09T00:55:01;3.33;;;1.95;;
69981;SDS011;57319;56.274;43.980;2023-10-09T00:57:55;3.90;;;1.95;;
69981;SDS011;57319;56.274;43.980;2023-10-09T01:00:23;2.47;;;2.38;;
69981;SDS011;57319;56.274;43.980;2023-10-09T01:03:15;5.88;;;2.25;;
69981;SDS011;57319;56.274;43.980;2023-10-09T01:05:43;2.38;;;2.05;;
69981;SDS011;57319;56.274;43.980;2023-10-09T01:08:28;2.72;;;2.40;;
69981;SDS011;57319;56.274;43.980;2023-10-09T01:10:58;3.05;;;2.30;;
69981;SDS011;57319;56.274;43.980;2023-10-09T01:13:37;3.20;;;2.92;;
69981;SDS011;57319;56.274;43.980;2023-10-09T01:16:12;2.50;;;2.40;;
69981;SDS011;57319;56.274;43.980;2023-10-09T01:18:44;2.22;;;2.13;;
69981;SDS011;57319;56.274;43.980;2023-10-09T01:21:12;2.92;;;2.72;;
69981;SDS011;57319;56.274;43.980;2023-10-09T01:23:42;7.78;;;2.72;;
69981;SDS011;57319;56.274;43.980;2023-10-09T01:26:44;4.07;;;3.78;;
69981;SDS011;57319;56.274;43.980;2023-10-09T01:29:14;4.55;;;4.25;;
69981;SDS011;57319;56.274;43.980;2023-10-09T01:31:48;9.35;;;4.90;;
69981;SDS011;57319;56.274;43.980;2023-10-09T01:34:24;4.70;;;4.50;;
69981;SDS011;57319;56.274;43.980;2023-10-09T01:37:18;10.02;;;4.68;;
69981;SDS011;57319;56.274;43.980;2023-10-09T01:39:49;4.85;;;4.55;;
69981;SDS011;57319;56.274;43.980;2023-10-09T01:42:17;4.55;;;4.15;;
69981;SDS011;57319;56.274;43.980;2023-10-09T01:44:55;4.00;;;3.70;;
69981;SDS011;57319;56.274;43.980;2023-10-09T01:47:23;3.20;;;3.08;;
69981;SDS011;57319;56.274;43.980;2023-10-09T01:49:51;2.80;;;2.78;;
69981;SDS011;57319;56.274;43.980;2023-10-09T01:52:18;2.92;;;2.72;;
69981;SDS011;57319;56.274;43.980;2023-10-09T01:54:46;1.95;;;1.95;;
69981;SDS011;57319;56.274;43.980;2023-10-09T01:57:17;2.80;;;2.00;;
69981;SDS011;57319;56.274;43.980;2023-10-09T01:59:51;2.28;;;2.08;;
69981;SDS011;57319;56.274;43.980;2023-10-09T02:02:20;1.70;;;1.70;;
69981;SDS011;57319;56.274;43.980;2023-10-09T02:04:53;1.98;;;1.88;;
69981;SDS011;57319;56.274;43.980;2023-10-09T02:07:30;2.22;;;2.20;;
69981;SDS011;57319;56.274;43.980;2023-10-09T02:10:06;1.90;;;1.80;;
69981;SDS011;57319;56.274;43.980;2023-10-09T02:12:46;2.20;;;2.10;;
69981;SDS011;57319;56.274;43.980;2023-10-09T02:15:29;1.70;;;1.63;;
69981;SDS011;57319;56.274;43.980;2023-10-09T02:18:12;3.00;;;2.00;;
69981;SDS011;57319;56.274;43.980;2023-10-09T02:20:45;2.13;;;2.03;;
69981;SDS011;57319;56.274;43.980;2023-10-09T02:23:33;1.90;;;1.90;;
69981;SDS011;57319;56.274;43.980;2023-10-09T02:26:02;1.80;;;1.80;;
69981;SDS011;57319;56.274;43.980;2023-10-09T02:28:31;1.90;;;1.90;;
69981;SDS011;57319;56.274;43.980;2023-10-09T02:31:01;2.05;;;1.98;;
69981;SDS011;57319;56.274;43.980;2023-10-09T02:33:35;1.70;;;1.70;;
69981;SDS011;57319;56.274;43.980;2023-10-09T02:36:07;2.00;;;2.00;;
69981;SDS011;57319;56.274;43.980;2023-10-09T02:38:33;2.03;;;1.95;;
69981;SDS011;57319;56.274;43.980;2023-10-09T02:41:02;5.28;;;2.15;;
69981;SDS011;57319;56.274;43.980;2023-10-09T02:43:31;2.35;;;2.22;;
69981;SDS011;57319;56.274;43.980;2023-10-09T02:46:14;2.35;;;2.25;;
69981;SDS011;57319;56.274;43.980;2023-10-09T02:48:56;2.00;;;1.90;;
69981;SDS011;57319;56.274;43.980;2023-10-09T02:51:31;2.50;;;2.40;;
69981;SDS011;57319;56.274;43.980;2023-10-09T02:53:58;2.67;;;2.58;;
69981;SDS011;57319;56.274;43.980;2023-10-09T02:56:44;2.78;;;2.53;;
69981;SDS011;57319;56.274;43.980;2023-10-09T02:59:13;2.45;;;2.28;;
69981;SDS011;57319;56.274;43.980;2023-10-09T03:01:40;2.85;;;2.65;;
69981;SDS011;57319;56.274;43.980;2023-10-09T03:04:07;2.88;;;2.67;;
69981;SDS011;57319;56.274;43.980;2023-10-09T03:06:36;3.50;;;2.35;;
69981;SDS011;57319;56.274;43.980;2023-10-09T03:09:09;1.88;;;1.88;;
69981;SDS011;57319;56.274;43.980;2023-10-09T03:11:51;2.10;;;2.10;;
69981;SDS011;57319;56.274;43.980;2023-10-09T03:14:19;2.67;;;2.47;;
69981;SDS011;57319;56.274;43.980;2023-10-09T03:16:52;5.25;;;2.10;;
69981;SDS011;57319;56.274;43.980;2023-10-09T03:19:18;1.90;;;1.90;;
69981;SDS011;57319;56.274;43.980;2023-10-09T03:21:43;1.80;;;1.80;;
69981;SDS011;57319;56.274;43.980;2023-10-09T03:24:09;7.43;;;1.95;;
69981;SDS011;57319;56.274;43.980;2023-10-09T03:26:36;1.42;;;1.33;;
69981;SDS011;57319;56.274;43.980;2023-10-09T03:29:02;1.55;;;1.48;;
69981;SDS011;57319;56.274;43.980;2023-10-09T03:31:36;1.67;;;1.67;;
69981;SDS011;57319;56.274;43.980;2023-10-09T03:34:03;1.67;;;1.63;;
69981;SDS011;57319;56.274;43.980;2023-10-09T03:36:33;1.85;;;1.70;;
69981;SDS011;57319;56.274;43.980;2023-10-09T03:39:04;1.65;;;1.65;;
69981;SDS011;57319;56.274;43.980;2023-10-09T03:41:45;2.20;;;2.10;;
69981;SDS011;57319;56.274;43.980;2023-10-09T03:44:13;2.38;;;1.90;;
69981;SDS011;57319;56.274;43.980;2023-10-09T03:46:44;2.50;;;2.40;;
69981;SDS011;57319;56.274;43.980;2023-10-09T03:49:10;2.42;;;2.33;;
69981;SDS011;57319;56.274;43.980;2023-10-09T03:51:38;2.50;;;2.40;;
69981;SDS011;57319;56.274;43.980;2023-10-09T03:54:04;2.38;;;2.17;;
69981;SDS011;57319;56.274;43.980;2023-10-09T03:56:33;8.07;;;2.45;;
69981;SDS011;57319;56.274;43.980;2023-10-09T03:59:00;2.67;;;2.58;;
69981;SDS011;57319;56.274;43.980;2023-10-09T04:01:26;3.17;;;2.90;;
69981;SDS011;57319;56.274;43.980;2023-10-09T04:04:03;2.35;;;2.13;;
69981;SDS011;57319;56.274;43.980;2023-10-09T04:06:31;3.00;;;2.80;;
69981;SDS011;57319;56.274;43.980;2023-10-09T04:09:00;6.07;;;3.00;;
69981;SDS011;57319;56.274;43.980;2023-10-09T04:11:39;2.75;;;2.55;;
69981;SDS011;57319;56.274;43.980;2023-10-09T04:14:08;3.38;;;2.60;;
69981;SDS011;57319;56.274;43.980;2023-10-09T04:16:47;2.90;;;2.80;;
69981;SDS011;57319;56.274;43.980;2023-10-09T04:19:33;4.53;;;1.92;;
69981;SDS011;57319;56.274;43.980;2023-10-09T04:22:16;2.40;;;2.20;;
69981;SDS011;57319;56.274;43.980;2023-10-09T04:24:52;4.90;;;1.80;;
69981;SDS011;57319;56.274;43.980;2023-10-09T04:27:18;2.33;;;1.55;;
69981;SDS011;57319;56.274;43.980;2023-10-09T04:29:52;2.60;;;1.50;;
69981;SDS011;57319;56.274;43.980;2023-10-09T04:32:20;1.05;;;1.05;;
69981;SDS011;57319;56.274;43.980;2023-10-09T04:34:51;1.48;;;0.90;;
69981;SDS011;57319;56.274;43.980;2023-10-09T04:37:42;2.78;;;1.30;;
69981;SDS011;57319;56.274;43.980;2023-10-09T04:40:10;1.10;;;1.10;;
69981;SDS011;57319;56.274;43.980;2023-10-09T04:42:37;0.70;;;0.70;;
69981;SDS011;57319;56.274;43.980;2023-10-09T04:45:04;0.70;;;0.70;;
69981;SDS011;57319;56.274;43.980;2023-10-09T04:47:35;1.30;;;1.20;;
69981;SDS011;57319;56.274;43.980;2023-10-09T04:50:08;1.30;;;1.27;;
69981;SDS011;57319;56.274;43.980;2023-10-09T04:53:01;1.33;;;1.33;;
69981;SDS011;57319;56.274;43.980;2023-10-09T04:55:39;1.13;;;1.13;;
69981;SDS011;57319;56.274;43.980;2023-10-09T04:58:09;1.10;;;1.00;;
69981;SDS011;57319;56.274;43.980;2023-10-09T05:00:49;1.52;;;1.52;;
69981;SDS011;57319;56.274;43.980;2023-10-09T05:03:27;1.20;;;1.20;;
69981;SDS011;57319;56.274;43.980;2023-10-09T05:05:54;3.95;;;1.45;;
69981;SDS011;57319;56.274;43.980;2023-10-09T05:08:25;5.20;;;0.85;;
69981;SDS011;57319;56.274;43.980;2023-10-09T05:16:05;0.90;;;0.90;;
69981;SDS011;57319;56.274;43.980;2023-10-09T05:18:56;0.77;;;0.77;;
69981;SDS011;57319;56.274;43.980;2023-10-09T05:21:26;0.80;;;0.80;;
69981;SDS011;57319;56.274;43.980;2023-10-09T05:23:59;1.00;;;1.00;;
69981;SDS011;57319;56.274;43.980;2023-10-09T05:26:47;1.00;;;1.00;;
69981;SDS011;57319;56.274;43.980;2023-10-09T05:29:24;5.95;;;1.10;;
69981;SDS011;57319;56.274;43.980;2023-10-09T05:32:13;3.70;;;1.60;;
69981;SDS011;57319;56.274;43.980;2023-10-09T05:34:41;5.22;;;1.20;;
69981;SDS011;57319;56.274;43.980;2023-10-09T05:37:33;2.15;;;1.10;;
69981;SDS011;57319;56.274;43.980;2023-10-09T05:40:02;0.90;;;0.90;;
69981;SDS011;57319;56.274;43.980;2023-10-09T05:42:41;30.98;;;2.05;;
69981;SDS011;57319;56.274;43.980;2023-10-09T05:45:09;2.85;;;1.20;;
69981;SDS011;57319;56.274;43.980;2023-10-09T05:50:24;1.13;;;1.00;;
69981;SDS011;57319;56.274;43.980;2023-10-09T05:52:55;2.83;;;0.95;;
69981;SDS011;57319;56.274;43.980;2023-10-09T05:55:22;1.77;;;1.25;;
69981;SDS011;57319;56.274;43.980;2023-10-09T05:57:52;1.13;;;1.02;;
69981;SDS011;57319;56.274;43.980;2023-10-09T06:00:22;6.28;;;1.10;;
69981;SDS011;57319;56.274;43.980;2023-10-09T06:03:06;0.98;;;0.98;;
69981;SDS011;57319;56.274;43.980;2023-10-09T06:05:49;1.65;;;1.00;;
69981;SDS011;57319;56.274;43.980;2023-10-09T06:08:30;1.00;;;1.00;;
69981;SDS011;57319;56.274;43.980;2023-10-09T06:11:06;0.88;;;0.88;;
69981;SDS011;57319;56.274;43.980;2023-10-09T06:13:51;1.10;;;1.10;;
69981;SDS011;57319;56.274;43.980;2023-10-09T06:16:28;1.08;;;0.70;;
69981;SDS011;57319;56.274;43.980;2023-10-09T06:19:15;1.52;;;0.75;;
69981;SDS011;57319;56.274;43.980;2023-10-09T06:21:47;5.25;;;1.67;;
69981;SDS011;57319;56.274;43.980;2023-10-09T06:24:29;1.17;;;0.90;;
69981;SDS011;57319;56.274;43.980;2023-10-09T06:27:08;1.15;;;1.08;;
69981;SDS011;57319;56.274;43.980;2023-10-09T06:29:35;1.70;;;1.60;;
69981;SDS011;57319;56.274;43.980;2023-10-09T06:32:02;3.58;;;1.80;;
69981;SDS011;57319;56.274;43.980;2023-10-09T06:34:56;1.38;;;1.33;;
69981;SDS011;57319;56.274;43.980;2023-10-09T06:37:45;1.30;;;1.13;;
69981;SDS011;57319;56.274;43.980;2023-10-09T06:40:36;1.55;;;1.00;;
69981;SDS011;57319;56.274;43.980;2023-10-09T06:43:18;4.72;;;1.23;;
69981;SDS011;57319;56.274;43.980;2023-10-09T06:45:50;5.32;;;1.00;;
69981;SDS011;57319;56.274;43.980;2023-10-09T06:48:23;1.30;;;1.00;;
69981;SDS011;57319;56.274;43.980;2023-10-09T06:51:06;1.13;;;1.05;;
69981;SDS011;57319;56.274;43.980;2023-10-09T06:53:51;1.23;;;0.80;;
69981;SDS011;57319;56.274;43.980;2023-10-09T06:56:20;0.80;;;0.80;;
69981;SDS011;57319;56.274;43.980;2023-10-09T06:59:04;1.17;;;0.63;;
69981;SDS011;57319;56.274;43.980;2023-10-09T07:01:51;0.60;;;0.60;;
69981;SDS011;57319;56.274;43.980;2023-10-09T07:04:36;2.90;;;0.50;;
69981;SDS011;57319;56.274;43.980;2023-10-09T07:07:02;4.03;;;0.80;;
69981;SDS011;57319;56.274;43.980;2023-10-09T07:09:35;0.70;;;0.70;;
69981;SDS011;57319;56.274;43.980;2023-10-09T07:12:08;0.60;;;0.57;;
69981;SDS011;57319;56.274;43.980;2023-10-09T07:14:51;0.93;;;0.90;;
69981;SDS011;57319;56.274;43.980;2023-10-09T07:17:28;0.82;;;0.82;;
69981;SDS011;57319;56.274;43.980;2023-10-09T07:20:14;1.00;;;1.00;;
69981;SDS011;57319;56.274;43.980;2023-10-09T07:22:41;0.95;;;0.80;;
69981;SDS011;57319;56.274;43.980;2023-10-09T07:25:22;1.27;;;1.13;;
69981;SDS011;57319;56.274;43.980;2023-10-09T07:28:07;1.92;;;1.15;;
69981;SDS011;57319;56.274;43.980;2023-10-09T07:31:05;9.38;;;1.30;;
69981;SDS011;57319;56.274;43.980;2023-10-09T07:33:34;1.90;;;1.80;;
69981;SDS011;57319;56.274;43.980;2023-10-09T07:36:18;3.88;;;2.55;;
69981;SDS011;57319;56.274;43.980;2023-10-09T07:39:01;2.30;;;2.20;;
69981;SDS011;57319;56.274;43.980;2023-10-09T07:41:31;6.93;;;2.42;;
69981;SDS011;57319;56.274;43.980;2023-10-09T07:43:57;2.65;;;2.13;;
69981;SDS011;57319;56.274;43.980;2023-10-09T07:46:25;2.50;;;1.90;;
69981;SDS011;57319;56.274;43.980;2023-10-09T07:49:09;1.60;;;1.50;;
69981;SDS011;57319;56.274;43.980;2023-10-09T07:51:40;1.70;;;1.60;;
69981;SDS011;57319;56.274;43.980;2023-10-09T07:54:09;4.88;;;1.50;;
69981;SDS011;57319;56.274;43.980;2023-10-09T07:56:48;2.17;;;0.80;;
69981;SDS011;57319;56.274;43.980;2023-10-09T07:59:19;2.20;;;1.10;;
69981;SDS011;57319;56.274;43.980;2023-10-09T08:01:46;1.30;;;1.20;;
69981;SDS011;57319;56.274;43.980;2023-10-09T08:04:23;1.50;;;1.40;;
69981;SDS011;57319;56.274;43.980;2023-10-09T08:07:15;1.60;;;1.50;;
69981;SDS011;57319;56.274;43.980;2023-10-09T08:09:46;1.10;;;1.10;;
69981;SDS011;57319;56.274;43.980;2023-10-09T08:12:13;0.90;;;0.90;;
69981;SDS011;57319;56.274;43.980;2023-10-09T08:14:42;0.82;;;0.73;;
69981;SDS011;57319;56.274;43.980;2023-10-09T08:17:13;2.45;;;1.00;;
69981;SDS011;57319;56.274;43.980;2023-10-09T08:19:52;0.90;;;0.90;;
69981;SDS011;57319;56.274;43.980;2023-10-09T08:22:36;4.43;;;1.30;;
69981;SDS011;57319;56.274;43.980;2023-10-09T08:25:09;1.40;;;1.27;;
69981;SDS011;57319;56.274;43.980;2023-10-09T08:27:57;1.70;;;1.20;;
69981;SDS011;57319;56.274;43.980;2023-10-09T08:30:45;2.65;;;1.23;;
69981;SDS011;57319;56.274;43.980;2023-10-09T08:33:20;4.68;;;0.70;;
69981;SDS011;57319;56.274;43.980;2023-10-09T08:35:55;0.50;;;0.50;;
69981;SDS011;57319;56.274;43.980;2023-10-09T08:38:30;0.80;;;0.80;;
69981;SDS011;57319;56.274;43.980;2023-10-09T08:41:10;0.50;;;0.50;;
69981;SDS011;57319;56.274;43.980;2023-10-09T08:43:44;0.68;;;0.68;;
69981;SDS011;57319;56.274;43.980;2023-10-09T08:46:17;0.75;;;0.75;;
69981;SDS011;57319;56.274;43.980;2023-10-09T08:48:45;0.70;;;0.70;;
69981;SDS011;57319;56.274;43.980;2023-10-09T08:51:12;0.77;;;0.77;;
69981;SDS011;57319;56.274;43.980;2023-10-09T08:53:39;10.60;;;1.05;;
69981;SDS011;57319;56.274;43.980;2023-10-09T08:56:09;0.80;;;0.80;;
69981;SDS011;57319;56.274;43.980;2023-10-09T08:58:36;1.00;;;0.55;;
69981;SDS011;57319;56.274;43.980;2023-10-09T09:01:05;0.60;;;0.60;;
69981;SDS011;57319;56.274;43.980;2023-10-09T09:03:38;1.20;;;0.70;;
69981;SDS011;57319;56.274;43.980;2023-10-09T09:06:10;2.75;;;1.00;;
69981;SDS011;57319;56.274;43.980;2023-10-09T09:08:40;1.20;;;1.10;;
69981;SDS011;57319;56.274;43.980;2023-10-09T09:11:16;3.05;;;1.08;;
69981;SDS011;57319;56.274;43.980;2023-10-09T09:14:04;1.55;;;0.90;;
69981;SDS011;57319;56.274;43.980;2023-10-09T09:16:32;1.00;;;0.70;;
69981;SDS011;57319;56.274;43.980;2023-10-09T09:19:01;0.68;;;0.68;;
69981;SDS011;57319;56.274;43.980;2023-10-09T09:21:50;3.13;;;0.73;;
69981;SDS011;57319;56.274;43.980;2023-10-09T09:24:21;5.68;;;1.13;;
69981;SDS011;57319;56.274;43.980;2023-10-09T09:26:55;0.90;;;0.90;;
69981;SDS011;57319;56.274;43.980;2023-10-09T09:32:02;2.58;;;1.20;;
69981;SDS011;57319;56.274;43.980;2023-10-09T09:34:46;2.85;;;0.77;;
69981;SDS011;57319;56.274;43.980;2023-10-09T09:37:26;7.43;;;1.13;;
69981;SDS011;57319;56.274;43.980;2023-10-09T09:39:57;1.27;;;1.17;;
69981;SDS011;57319;56.274;43.980;2023-10-09T09:42:25;0.80;;;0.80;;
69981;SDS011;57319;56.274;43.980;2023-10-09T09:44:52;1.38;;;1.02;;
69981;SDS011;57319;56.274;43.980;2023-10-09T09:47:19;2.05;;;1.25;;
69981;SDS011;57319;56.274;43.980;2023-10-09T09:49:53;0.80;;;0.80;;
69981;SDS011;57319;56.274;43.980;2023-10-09T09:52:28;0.80;;;0.80;;
69981;SDS011;57319;56.274;43.980;2023-10-09T09:55:03;1.00;;;1.00;;
69981;SDS011;57319;56.274;43.980;2023-10-09T09:57:31;0.80;;;0.80;;
69981;SDS011;57319;56.274;43.980;2023-10-09T10:00:05;1.07;;;0.90;;
69981;SDS011;57319;56.274;43.980;2023-10-09T10:02:43;0.93;;;0.93;;
69981;SDS011;57319;56.274;43.980;2023-10-09T10:05:10;1.10;;;1.00;;
69981;SDS011;57319;56.274;43.980;2023-10-09T10:07:40;2.92;;;1.50;;
69981;SDS011;57319;56.274;43.980;2023-10-09T10:13:03;1.80;;;1.70;;
69981;SDS011;57319;56.274;43.980;2023-10-09T10:18:22;1.92;;;1.85;;
69981;SDS011;57319;56.274;43.980;2023-10-09T10:23:41;1.88;;;1.83;;
69981;SDS011;57319;56.274;43.980;2023-10-09T10:26:18;3.50;;;1.80;;
69981;SDS011;57319;56.274;43.980;2023-10-09T10:40:24;2.92;;;2.28;;
69981;SDS011;57319;56.274;43.980;2023-10-09T10:43:18;6.55;;;2.67;;
69981;SDS011;57319;56.274;43.980;2023-10-09T10:46:13;3.38;;;2.45;;
69981;SDS011;57319;56.274;43.980;2023-10-09T10:48:55;2.80;;;1.85;;
69981;SDS011;57319;56.274;43.980;2023-10-09T10:51:51;3.83;;;1.80;;
69981;SDS011;57319;56.274;43.980;2023-10-09T10:54:35;6.45;;;2.13;;
69981;SDS011;57319;56.274;43.980;2023-10-09T10:57:01;5.43;;;2.05;;
69981;SDS011;57319;56.274;43.980;2023-10-09T10:59:31;1.05;;;1.05;;
69981;SDS011;57319;56.274;43.980;2023-10-09T11:02:11;2.85;;;1.33;;
69981;SDS011;57319;56.274;43.980;2023-10-09T11:04:37;1.02;;;1.02;;
69981;SDS011;57319;56.274;43.980;2023-10-09T11:07:05;0.95;;;0.95;;
69981;SDS011;57319;56.274;43.980;2023-10-09T11:09:50;1.33;;;1.10;;
69981;SDS011;57319;56.274;43.980;2023-10-09T11:15:29;1.05;;;1.00;;
69981;SDS011;57319;56.274;43.980;2023-10-09T11:18:11;1.08;;;1.08;;
69981;SDS011;57319;56.274;43.980;2023-10-09T11:20:54;0.77;;;0.77;;
69981;SDS011;57319;56.274;43.980;2023-10-09T11:23:32;1.20;;;1.10;;
69981;SDS011;57319;56.274;43.980;2023-10-09T11:25:59;0.90;;;0.90;;
69981;SDS011;57319;56.274;43.980;2023-10-09T11:28:44;1.45;;;0.65;;
69981;SDS011;57319;56.274;43.980;2023-10-09T11:31:22;0.80;;;0.80;;
69981;SDS011;57319;56.274;43.980;2023-10-09T11:33:50;0.80;;;0.80;;
69981;SDS011;57319;56.274;43.980;2023-10-09T11:36:18;0.93;;;0.90;;
69981;SDS011;57319;56.274;43.980;2023-10-09T11:38:55;3.95;;;1.10;;
69981;SDS011;57319;56.274;43.980;2023-10-09T11:41:43;3.33;;;1.20;;
69981;SDS011;57319;56.274;43.980;2023-10-09T11:44:34;1.30;;;1.17;;
69981;SDS011;57319;56.274;43.980;2023-10-09T11:47:05;3.08;;;1.30;;
69981;SDS011;57319;56.274;43.980;2023-10-09T11:49:48;4.60;;;1.40;;
69981;SDS011;57319;56.274;43.980;2023-10-09T11:52:31;1.42;;;1.33;;
69981;SDS011;57319;56.274;43.980;2023-10-09T11:55:01;1.65;;;1.30;;
69981;SDS011;57319;56.274;43.980;2023-10-09T11:57:30;3.38;;;1.80;;
69981;SDS011;57319;56.274;43.980;2023-10-09T11:59:56;2.15;;;2.05;;
69981;SDS011;57319;56.274;43.980;2023-10-09T12:02:24;2.20;;;2.00;;
69981;SDS011;57319;56.274;43.980;2023-10-09T12:04:51;1.60;;;1.60;;
69981;SDS011;57319;56.274;43.980;2023-10-09T12:07:36;1.55;;;1.55;;
69981;SDS011;57319;56.274;43.980;2023-10-09T12:10:08;1.83;;;1.73;;
69981;SDS011;57319;56.274;43.980;2023-10-09T12:12:35;1.40;;;1.30;;
69981;SDS011;57319;56.274;43.980;2023-10-09T12:15:02;1.77;;;1.67;;
69981;SDS011;57319;56.274;43.980;2023-10-09T12:17:32;8.07;;;0.90;;
69981;SDS011;57319;56.274;43.980;2023-10-09T12:20:18;1.98;;;1.10;;
69981;SDS011;57319;56.274;43.980;2023-10-09T12:23:02;0.88;;;0.88;;
69981;SDS011;57319;56.274;43.980;2023-10-09T12:25:42;4.03;;;0.98;;
69981;SDS011;57319;56.274;43.980;2023-10-09T12:28:10;1.02;;;1.02;;
69981;SDS011;57319;56.274;43.980;2023-10-09T12:30:39;1.10;;;1.10;;
69981;SDS011;57319;56.274;43.980;2023-10-09T12:33:07;1.15;;;1.15;;
69981;SDS011;57319;56.274;43.980;2023-10-09T12:35:37;1.38;;;1.05;;
69981;SDS011;57319;56.274;43.980;2023-10-09T12:38:04;2.25;;;0.95;;
69981;SDS011;57319;56.274;43.980;2023-10-09T12:40:38;1.27;;;0.70;;
69981;SDS011;57319;56.274;43.980;2023-10-09T12:43:18;0.57;;;0.57;;
69981;SDS011;57319;56.274;43.980;2023-10-09T12:45:47;1.67;;;0.85;;
69981;SDS011;57319;56.274;43.980;2023-10-09T12:48:13;1.25;;;1.15;;
69981;SDS011;57319;56.274;43.980;2023-10-09T12:50:40;2.15;;;1.30;;
69981;SDS011;57319;56.274;43.980;2023-10-09T12:53:10;1.67;;;1.65;;
69981;SDS011;57319;56.274;43.980;2023-10-09T12:58:06;2.65;;;2.45;;
69981;SDS011;57319;56.274;43.980;2023-10-09T13:03:12;6.82;;;2.55;;
69981;SDS011;57319;56.274;43.980;2023-10-09T13:05:51;2.50;;;2.35;;
69981;SDS011;57319;56.274;43.980;2023-10-09T13:08:25;2.58;;;2.35;;
69981;SDS011;57319;56.274;43.980;2023-10-09T13:11:02;1.80;;;1.65;;
69981;SDS011;57319;56.274;43.980;2023-10-09T13:13:43;3.65;;;1.60;;
69981;SDS011;57319;56.274;43.980;2023-10-09T13:16:15;2.33;;;2.22;;
69981;SDS011;57319;56.274;43.980;2023-10-09T13:18:52;1.65;;;1.65;;
69981;SDS011;57319;56.274;43.980;2023-10-09T13:21:19;1.80;;;1.70;;
69981;SDS011;57319;56.274;43.980;2023-10-09T13:23:48;1.13;;;1.13;;
69981;SDS011;57319;56.274;43.980;2023-10-09T13:26:19;1.70;;;1.70;;
69981;SDS011;57319;56.274;43.980;2023-10-09T13:28:55;1.95;;;1.67;;
69981;SDS011;57319;56.274;43.980;2023-10-09T13:31:22;3.28;;;1.30;;
69981;SDS011;57319;56.274;43.980;2023-10-09T13:33:55;2.10;;;2.00;;
69981;SDS011;57319;56.274;43.980;2023-10-09T13:36:22;1.50;;;1.40;;
69981;SDS011;57319;56.274;43.980;2023-10-09T13:39:01;1.50;;;1.40;;
69981;SDS011;57319;56.274;43.980;2023-10-09T13:41:46;3.40;;;1.30;;
69981;SDS011;57319;56.274;43.980;2023-10-09T13:44:12;1.20;;;1.15;;
69981;SDS011;57319;56.274;43.980;2023-10-09T13:46:38;5.05;;;1.50;;
69981;SDS011;57319;56.274;43.980;2023-10-09T13:49:10;5.82;;;1.55;;
69981;SDS011;57319;56.274;43.980;2023-10-09T13:51:40;1.52;;;1.08;;
69981;SDS011;57319;56.274;43.980;2023-10-09T13:54:16;3.40;;;1.30;;
69981;SDS011;57319;56.274;43.980;2023-10-09T13:56:47;0.95;;;0.95;;
69981;SDS011;57319;56.274;43.980;2023-10-09T13:59:21;1.13;;;0.98;;
69981;SDS011;57319;56.274;43.980;2023-10-09T14:01:51;0.98;;;0.98;;
69981;SDS011;57319;56.274;43.980;2023-10-09T14:04:21;0.70;;;0.70;;
69981;SDS011;57319;56.274;43.980;2023-10-09T14:06:48;0.90;;;0.90;;
69981;SDS011;57319;56.274;43.980;2023-10-09T14:09:22;1.52;;;0.75;;
69981;SDS011;57319;56.274;43.980;2023-10-09T14:12:05;1.02;;;1.00;;
69981;SDS011;57319;56.274;43.980;2023-10-09T14:14:42;0.95;;;0.95;;
69981;SDS011;57319;56.274;43.980;2023-10-09T14:17:22;3.55;;;0.88;;
69981;SDS011;57319;56.274;43.980;2023-10-09T14:19:54;0.80;;;0.80;;
69981;SDS011;57319;56.274;43.980;2023-10-09T14:22:29;1.00;;;1.00;;
69981;SDS011;57319;56.274;43.980;2023-10-09T14:24:55;0.93;;;0.93;;
69981;SDS011;57319;56.274;43.980;2023-10-09T14:27:22;1.30;;;1.30;;
69981;SDS011;57319;56.274;43.980;2023-10-09T14:29:54;1.20;;;0.90;;
69981;SDS011;57319;56.274;43.980;2023-10-09T14:32:22;0.77;;;0.77;;
69981;SDS011;57319;56.274;43.980;2023-10-09T14:34:55;0.90;;;0.90;;
69981;SDS011;57319;56.274;43.980;2023-10-09T14:37:27;0.80;;;0.80;;
69981;SDS011;57319;56.274;43.980;2023-10-09T14:39:53;1.02;;;1.02;;
69981;SDS011;57319;56.274;43.980;2023-10-09T14:42:19;1.25;;;0.75;;
69981;SDS011;57319;56.274;43.980;2023-10-09T14:44:48;1.13;;;0.90;;
69981;SDS011;57319;56.274;43.980;2023-10-09T14:47:15;1.33;;;1.30;;
69981;SDS011;57319;56.274;43.980;2023-10-09T14:49:46;0.98;;;0.98;;
69981;SDS011;57319;56.274;43.980;2023-10-09T14:52:13;0.90;;;0.90;;
69981;SDS011;57319;56.274;43.980;2023-10-09T14:54:44;1.00;;;1.00;;
69981;SDS011;57319;56.274;43.980;2023-10-09T14:57:13;1.05;;;1.00;;
69981;SDS011;57319;56.274;43.980;2023-10-09T14:59:39;0.82;;;0.82;;
69981;SDS011;57319;56.274;43.980;2023-10-09T15:02:06;1.08;;;1.05;;
69981;SDS011;57319;56.274;43.980;2023-10-09T15:04:33;0.90;;;0.90;;
69981;SDS011;57319;56.274;43.980;2023-10-09T15:07:02;0.80;;;0.80;;
69981;SDS011;57319;56.274;43.980;2023-10-09T15:09:34;1.45;;;0.80;;
69981;SDS011;57319;56.274;43.980;2023-10-09T15:12:02;0.77;;;0.77;;
69981;SDS011;57319;56.274;43.980;2023-10-09T15:14:31;0.70;;;0.70;;
69981;SDS011;57319;56.274;43.980;2023-10-09T15:16:57;0.60;;;0.60;;
69981;SDS011;57319;56.274;43.980;2023-10-09T15:19:23;0.70;;;0.70;;
69981;SDS011;57319;56.274;43.980;2023-10-09T15:21:57;5.25;;;0.75;;
69981;SDS011;57319;56.274;43.980;2023-10-09T15:24:25;0.60;;;0.60;;
69981;SDS011;57319;56.274;43.980;2023-10-09T15:26:54;4.03;;;0.98;;
69981;SDS011;57319;56.274;43.980;2023-10-09T15:29:24;0.90;;;0.90;;
69981;SDS011;57319;56.274;43.980;2023-10-09T15:32:01;0.73;;;0.73;;
69981;SDS011;57319;56.274;43.980;2023-10-09T15:34:31;1.10;;;1.10;;
69981;SDS011;57319;56.274;43.980;2023-10-09T15:36:57;3.00;;;1.20;;
69981;SDS011;57319;56.274;43.980;2023-10-09T15:39:23;1.50;;;1.40;;
69981;SDS011;57319;56.274;43.980;2023-10-09T15:41:49;1.20;;;1.20;;
69981;SDS011;57319;56.274;43.980;2023-10-09T15:44:16;2.00;;;1.02;;
69981;SDS011;57319;56.274;43.980;2023-10-09T15:46:42;1.75;;;1.20;;
69981;SDS011;57319;56.274;43.980;2023-10-09T15:49:11;1.40;;;1.30;;
69981;SDS011;57319;56.274;43.980;2023-10-09T15:51:39;1.30;;;1.20;;
69981;SDS011;57319;56.274;43.980;2023-10-09T15:54:05;4.78;;;1.00;;